Time;durP1;ratioP1;P1;durP2;ratioP2;P2;SDS_P1;SDS_P2;PMS_P1;PMS_P2;Temp;Humidity;BMP_temperature;BMP_pressure;BME280_temperature;BME280_humidity;BME280_pressure;Samples;Min_cycle;Max_cycle;Signal;HPM_P1;HPM_P2
2024/01/22 00:02:10;;;;;;;4.30;3.90;;;3.80;1.00;;;;;;5118615;28;20512;-47
2024/01/22 00:04:35;;;;;;;6.80;3.57;;;3.80;1.00;;;;;;5118006;28;20430;-45
2024/01/22 00:07:01;;;;;;;5.10;3.90;;;3.80;1.00;;;;;;5118022;28;20239;-45
2024/01/22 00:09:26;;;;;;;6.90;4.23;;;3.70;1.00;;;;;;5117090;28;20179;-42
2024/01/22 00:11:52;;;;;;;4.90;3.43;;;3.70;1.00;;;;;;5118109;28;20522;-43
2024/01/22 00:14:17;;;;;;;5.07;3.70;;;3.70;1.00;;;;;;5117751;28;20336;-44
2024/01/22 00:16:43;;;;;;;4.47;3.03;;;3.60;1.00;;;;;;5117600;28;20575;-42
2024/01/22 00:19:08;;;;;;;4.83;3.23;;;3.60;1.00;;;;;;5118660;28;20168;-44
2024/01/22 00:21:34;;;;;;;4.57;3.57;;;3.60;1.00;;;;;;5118525;28;20198;-43
2024/01/22 00:24:00;;;;;;;4.87;4.17;;;3.50;1.00;;;;;;5100339;28;20180;-43
2024/01/22 00:26:25;;;;;;;5.40;4.30;;;3.50;1.00;;;;;;5118301;28;20592;-42
2024/01/22 00:28:51;;;;;;;5.73;3.80;;;3.50;1.00;;;;;;5118285;28;20176;-44
2024/01/22 00:31:16;;;;;;;5.80;3.73;;;3.50;1.00;;;;;;5118568;28;20156;-43
2024/01/22 00:33:43;;;;;;;4.90;4.13;;;3.40;1.00;;;;;;5119016;28;20184;-43
2024/01/22 00:36:15;;;;;;;5.43;3.90;;;3.40;1.00;;;;;;5118324;28;20202;-45
2024/01/22 00:38:41;;;;;;;5.23;3.70;;;3.40;1.00;;;;;;5117932;28;20495;-43
2024/01/22 00:41:07;;;;;;;4.93;4.07;;;3.40;1.00;;;;;;5099292;28;20861;-53
2024/01/22 00:43:32;;;;;;;5.57;4.03;;;3.30;1.00;;;;;;5117473;28;20409;-44
2024/01/22 00:46:00;;;;;;;4.07;3.23;;;3.30;1.00;;;;;;5118012;28;20461;-43
2024/01/22 00:48:26;;;;;;;5.50;4.00;;;3.30;1.00;;;;;;5118234;28;20418;-42
2024/01/22 00:50:51;;;;;;;4.73;4.10;;;3.30;1.00;;;;;;5117674;28;20851;-44
2024/01/22 00:53:17;;;;;;;3.90;3.10;;;3.20;14.60;;;;;;5117314;28;20268;-43
2024/01/22 00:55:42;;;;;;;4.17;3.40;;;3.20;50.20;;;;;;5116509;28;20243;-46
2024/01/22 00:58:08;;;;;;;4.30;3.40;;;3.20;97.60;;;;;;5116916;28;20449;-44
2024/01/22 01:00:33;;;;;;;4.23;3.30;;;3.10;99.90;;;;;;5117752;28;20199;-43
2024/01/22 01:02:59;;;;;;;4.30;2.70;;;3.00;99.90;;;;;;5117947;28;20179;-46
2024/01/22 01:05:24;;;;;;;4.00;3.27;;;3.00;99.90;;;;;;5118108;28;20219;-44
2024/01/22 01:07:50;;;;;;;5.13;3.27;;;3.10;99.90;;;;;;5116647;28;20168;-42
2024/01/22 01:10:15;;;;;;;5.10;2.97;;;3.10;99.90;;;;;;5116524;28;20179;-44
2024/01/22 01:12:41;;;;;;;6.70;3.47;;;3.30;99.90;;;;;;5117175;28;20256;-42
2024/01/22 01:15:07;;;;;;;5.00;3.37;;;3.30;99.90;;;;;;5117837;28;20191;-42
2024/01/22 01:17:32;;;;;;;4.03;2.87;;;3.30;99.90;;;;;;5116982;28;20215;-42
2024/01/22 01:19:58;;;;;;;4.90;2.67;;;3.30;1.00;;;;;;5117189;28;20468;-43
2024/01/22 01:22:24;;;;;;;5.40;3.00;;;3.30;1.00;;;;;;5099630;28;20235;-42
2024/01/22 01:24:50;;;;;;;4.00;3.07;;;3.40;1.00;;;;;;5117566;28;20199;-43
2024/01/22 01:27:17;;;;;;;6.20;3.90;;;3.40;1.00;;;;;;5099130;28;20655;-43
2024/01/22 01:29:43;;;;;;;5.50;3.63;;;3.30;1.00;;;;;;5116808;28;20779;-41
2024/01/22 01:32:08;;;;;;;3.00;2.00;;;3.30;1.00;;;;;;5117250;28;20497;-47
2024/01/22 01:34:34;;;;;;;5.20;2.63;;;3.90;99.90;;;;;;5117754;28;20176;-50
2024/01/22 01:36:59;;;;;;;4.63;3.50;;;5.00;1.00;;;;;;5117736;28;20220;-43
2024/01/22 01:39:25;;;;;;;4.80;3.87;;;6.10;1.00;;;;;;5117146;28;20496;-45
2024/01/22 01:41:50;;;;;;;3.93;3.17;;;5.80;69.00;;;;;;5117470;28;20206;-41
2024/01/22 01:44:16;;;;;;;5.07;3.63;;;5.60;1.00;;;;;;5116479;28;20682;-42
2024/01/22 01:46:41;;;;;;;5.10;3.80;;;5.30;99.90;;;;;;5117133;28;20298;-45
2024/01/22 01:49:08;;;;;;;3.80;3.50;;;4.90;99.90;;;;;;5116978;28;20171;-44
2024/01/22 01:51:33;;;;;;;4.00;3.60;;;4.60;99.90;;;;;;5116617;28;20311;-42
2024/01/22 01:53:59;;;;;;;4.77;3.50;;;4.30;99.90;;;;;;5117040;28;21388;-46
2024/01/22 01:56:25;;;;;;;4.70;3.10;;;4.10;99.90;;;;;;5099023;28;20188;-46
2024/01/22 01:58:51;;;;;;;5.93;3.70;;;3.80;99.90;;;;;;5099150;28;20180;-44
2024/01/22 02:01:17;;;;;;;4.30;3.43;;;3.70;99.90;;;;;;5116704;28;20497;-42
2024/01/22 02:03:43;;;;;;;5.30;3.07;;;3.60;1.00;;;;;;5115822;28;20839;-43
2024/01/22 02:06:09;;;;;;;5.13;3.80;;;3.50;1.00;;;;;;5115155;28;20479;-45
2024/01/22 02:08:34;;;;;;;4.33;3.37;;;3.40;1.00;;;;;;5079034;28;20734;-44
2024/01/22 02:11:00;;;;;;;3.60;3.10;;;3.40;46.50;;;;;;5113320;28;20255;-43
2024/01/22 02:13:28;;;;;;;4.60;3.47;;;3.30;99.90;;;;;;5113151;28;20199;-45
2024/01/22 02:15:54;;;;;;;4.40;2.60;;;3.40;1.00;;;;;;5114032;28;20180;-43
2024/01/22 02:18:20;;;;;;;3.60;3.07;;;3.50;4.00;;;;;;5114795;28;20662;-46
2024/01/22 02:20:45;;;;;;;4.40;3.03;;;3.50;1.00;;;;;;5115510;28;20691;-44
2024/01/22 02:23:11;;;;;;;3.50;2.30;;;3.60;12.80;;;;;;5118836;28;20196;-42
2024/01/22 02:25:36;;;;;;;3.80;2.90;;;3.70;1.00;;;;;;5120698;28;20211;-45
2024/01/22 02:28:02;;;;;;;4.13;2.60;;;3.80;1.00;;;;;;5120700;28;20175;-42
2024/01/22 02:30:27;;;;;;;5.97;3.50;;;3.80;1.00;;;;;;5120802;28;20191;-43
2024/01/22 02:32:53;;;;;;;6.20;3.90;;;3.80;1.00;;;;;;5119547;28;20194;-42
2024/01/22 02:35:20;;;;;;;4.20;3.17;;;3.80;1.00;;;;;;5120636;28;20206;-48
2024/01/22 02:37:46;;;;;;;3.70;2.77;;;3.80;1.00;;;;;;5120049;28;20167;-45
2024/01/22 02:40:11;;;;;;;5.33;3.67;;;3.80;1.00;;;;;;5084274;28;20883;-42
2024/01/22 02:42:37;;;;;;;4.27;3.30;;;3.90;1.00;;;;;;5119352;28;20206;-41
2024/01/22 02:45:03;;;;;;;6.83;3.30;;;3.90;1.00;;;;;;5118544;28;20188;-43
2024/01/22 02:47:28;;;;;;;3.40;2.77;;;3.90;1.00;;;;;;5119265;28;20240;-44
2024/01/22 02:49:54;;;;;;;4.73;3.30;;;3.90;1.00;;;;;;5119198;28;20742;-43
2024/01/22 02:52:19;;;;;;;7.60;4.07;;;3.90;1.00;;;;;;5119126;28;20178;-44
2024/01/22 02:54:45;;;;;;;4.87;3.33;;;3.80;97.90;;;;;;5120309;28;20461;-44
2024/01/22 02:57:11;;;;;;;7.30;4.70;;;3.80;99.90;;;;;;5120276;28;20259;-42
2024/01/22 02:59:37;;;;;;;3.97;3.10;;;3.80;99.90;;;;;;5120114;28;20199;-42
2024/01/22 03:02:03;;;;;;;4.17;3.50;;;3.80;99.90;;;;;;5120358;28;20440;-44
2024/01/22 03:04:28;;;;;;;3.90;3.50;;;3.80;99.90;;;;;;5120167;28;20481;-44
2024/01/22 03:06:54;;;;;;;4.70;3.63;;;3.80;99.90;;;;;;5120284;28;20899;-42
2024/01/22 03:09:20;;;;;;;5.70;3.40;;;3.80;99.90;;;;;;5119859;28;20179;-43
2024/01/22 03:11:45;;;;;;;4.20;3.30;;;3.80;99.90;;;;;;5120100;28;20847;-43
2024/01/22 03:14:11;;;;;;;3.83;3.40;;;3.90;99.90;;;;;;5119767;28;20670;-46
2024/01/22 03:16:37;;;;;;;5.40;3.83;;;3.90;99.90;;;;;;5101155;28;20267;-46
2024/01/22 03:19:03;;;;;;;4.53;3.60;;;3.90;99.90;;;;;;5100937;28;20481;-42
2024/01/22 03:21:28;;;;;;;5.30;4.13;;;3.90;99.90;;;;;;5119276;28;20434;-42
2024/01/22 03:23:54;;;;;;;4.93;3.40;;;3.90;99.90;;;;;;5118316;28;20426;-43
2024/01/22 03:26:23;;;;;;;4.23;3.47;;;3.90;99.90;;;;;;5118574;28;20204;-42
2024/01/22 03:28:49;;;;;;;7.40;4.00;;;3.90;99.90;;;;;;5118678;28;20757;-44
2024/01/22 03:31:24;;;;;;;4.77;3.37;;;3.80;99.90;;;;;;5117575;28;20461;-45
2024/01/22 03:33:51;;;;;;;5.87;4.00;;;3.90;99.90;;;;;;5117195;28;20427;-43
2024/01/22 03:36:17;;;;;;;9.77;3.60;;;3.90;99.90;;;;;;5117452;28;20518;-43
2024/01/22 03:38:43;;;;;;;4.97;3.70;;;3.80;99.90;;;;;;5117073;28;20505;-43
2024/01/22 03:41:09;;;;;;;4.83;3.40;;;3.90;99.90;;;;;;5117135;28;20465;-44
2024/01/22 03:43:34;;;;;;;4.60;3.60;;;3.90;99.90;;;;;;5117999;28;20492;-45
2024/01/22 03:46:00;;;;;;;6.27;4.17;;;3.90;99.90;;;;;;5118375;28;20238;-44
2024/01/22 03:48:25;;;;;;;4.87;3.57;;;4.00;99.90;;;;;;5100330;28;20211;-42
2024/01/22 03:50:53;;;;;;;4.00;3.10;;;4.00;99.90;;;;;;5099212;28;20192;-41
2024/01/22 03:53:19;;;;;;;4.60;2.87;;;4.00;99.90;;;;;;5098777;28;20598;-44
2024/01/22 03:55:45;;;;;;;4.20;3.20;;;4.10;53.70;;;;;;5117397;28;20409;-44
2024/01/22 03:58:11;;;;;;;4.57;3.20;;;4.20;1.00;;;;;;5117768;28;20704;-45
2024/01/22 04:00:37;;;;;;;5.83;3.27;;;4.30;1.00;;;;;;5116559;28;20204;-44
2024/01/22 04:03:03;;;;;;;4.77;3.33;;;4.40;1.00;;;;;;5117551;28;20496;-44
2024/01/22 04:05:29;;;;;;;3.43;2.63;;;4.50;99.90;;;;;;5118627;28;20814;-43
2024/01/22 04:07:54;;;;;;;5.70;3.27;;;4.50;99.90;;;;;;5117487;28;20525;-44
2024/01/22 04:10:20;;;;;;;4.30;3.10;;;4.60;99.90;;;;;;5116591;28;20267;-42
2024/01/22 04:12:45;;;;;;;3.50;3.13;;;4.60;99.90;;;;;;5115975;28;20180;-45
2024/01/22 04:15:11;;;;;;;4.70;3.70;;;4.70;67.80;;;;;;5116373;28;20546;-42
2024/01/22 04:17:36;;;;;;;3.53;2.70;;;4.80;1.00;;;;;;5116249;28;20180;-42
2024/01/22 04:20:03;;;;;;;3.37;2.47;;;4.90;1.00;;;;;;5116670;28;20332;-43
2024/01/22 04:22:28;;;;;;;4.70;2.83;;;4.90;1.00;;;;;;5116978;28;20168;-43
2024/01/22 04:24:54;;;;;;;3.20;2.77;;;4.90;1.00;;;;;;5117996;28;20409;-41
2024/01/22 04:27:20;;;;;;;4.87;3.33;;;5.00;1.00;;;;;;5118200;28;20241;-44
2024/01/22 04:29:45;;;;;;;3.57;2.50;;;5.00;1.00;;;;;;5118263;28;20184;-43
2024/01/22 04:32:11;;;;;;;7.13;2.87;;;5.00;1.00;;;;;;5117785;28;20553;-45
2024/01/22 04:34:39;;;;;;;3.13;2.63;;;5.00;1.00;;;;;;5117692;28;20569;-42
2024/01/22 04:37:05;;;;;;;7.23;3.43;;;5.10;1.00;;;;;;5109083;28;20181;-49
2024/01/22 04:39:30;;;;;;;4.13;3.53;;;5.00;1.00;;;;;;5097236;28;20484;-44
2024/01/22 04:41:56;;;;;;;4.00;2.80;;;5.00;1.00;;;;;;5097232;28;20437;-48
2024/01/22 04:44:21;;;;;;;4.10;3.20;;;5.00;1.00;;;;;;5097468;28;20195;-46
2024/01/22 04:46:47;;;;;;;5.20;3.20;;;5.00;1.00;;;;;;5097524;28;20295;-44
2024/01/22 04:49:12;;;;;;;5.67;3.67;;;5.00;1.00;;;;;;5097792;28;20168;-45
2024/01/22 04:51:42;;;;;;;4.20;3.30;;;5.00;1.00;;;;;;5097557;28;20176;-43
2024/01/22 04:54:08;;;;;;;4.40;3.63;;;4.90;1.00;;;;;;5096554;28;20250;-43
2024/01/22 04:56:43;;;;;;;4.73;3.43;;;4.90;1.00;;;;;;5096215;28;20426;-46
2024/01/22 04:59:09;;;;;;;4.33;3.60;;;4.90;1.00;;;;;;5077343;28;20215;-44
2024/01/22 05:01:34;;;;;;;4.60;2.87;;;4.90;4.20;;;;;;5095487;28;20851;-42
2024/01/22 05:04:00;;;;;;;5.90;3.47;;;4.90;31.20;;;;;;5077025;28;20200;-46
2024/01/22 05:06:25;;;;;;;6.80;3.77;;;4.90;1.00;;;;;;5096356;28;20250;-45
2024/01/22 05:08:51;;;;;;;4.97;4.40;;;4.90;1.00;;;;;;5096264;28;20177;-42
2024/01/22 05:11:16;;;;;;;5.93;3.60;;;4.90;1.00;;;;;;5096255;28;20242;-45
2024/01/22 05:13:52;;;;;;;4.10;3.20;;;5.00;1.00;;;;;;5096706;28;20238;-42
2024/01/22 05:16:18;;;;;;;6.23;3.80;;;5.00;1.00;;;;;;5096190;28;20160;-43
2024/01/22 05:18:44;;;;;;;3.97;3.30;;;5.00;15.90;;;;;;5095718;28;20578;-46
2024/01/22 05:21:10;;;;;;;4.10;3.57;;;4.90;79.40;;;;;;5096095;28;20447;-42
2024/01/22 05:23:36;;;;;;;4.03;3.63;;;4.90;99.90;;;;;;5096333;28;20199;-43
2024/01/22 05:26:02;;;;;;;6.73;4.13;;;4.90;99.90;;;;;;5095318;28;20557;-42
2024/01/22 05:28:28;;;;;;;4.17;3.77;;;4.90;99.90;;;;;;5096044;28;20245;-44
2024/01/22 05:30:53;;;;;;;6.10;4.53;;;4.80;99.90;;;;;;5097046;28;20410;-43
2024/01/22 05:33:19;;;;;;;6.53;4.00;;;4.80;99.90;;;;;;5097081;28;20188;-45
2024/01/22 05:35:44;;;;;;;6.93;3.60;;;4.80;99.90;;;;;;5096937;28;20551;-42
2024/01/22 05:38:10;;;;;;;4.30;3.30;;;4.80;99.90;;;;;;5095566;28;20278;-44
2024/01/22 05:40:35;;;;;;;4.77;3.87;;;4.80;99.90;;;;;;5095081;28;20214;-44
2024/01/22 05:43:01;;;;;;;5.00;4.50;;;4.80;99.90;;;;;;5095799;28;20187;-42
2024/01/22 05:45:26;;;;;;;6.87;4.33;;;4.80;99.90;;;;;;5095652;28;20219;-41
2024/01/22 05:47:53;;;;;;;5.00;4.37;;;4.80;99.90;;;;;;5095427;28;20185;-46
2024/01/22 05:50:18;;;;;;;7.23;4.40;;;4.70;99.90;;;;;;5095720;28;20175;-44
2024/01/22 05:52:44;;;;;;;6.33;4.00;;;4.80;99.90;;;;;;5096084;28;20398;-43
2024/01/22 05:55:09;;;;;;;4.97;4.03;;;4.90;99.90;;;;;;5095779;28;20654;-42
2024/01/22 05:57:35;;;;;;;8.90;4.40;;;4.90;99.90;;;;;;5096576;28;20538;-42
2024/01/22 06:00:09;;;;;;;5.27;3.37;;;4.90;99.90;;;;;;5097505;28;20275;-46
2024/01/22 06:02:35;;;;;;;4.43;3.90;;;4.90;99.90;;;;;;5099633;28;20188;-46
2024/01/22 06:05:00;;;;;;;4.67;3.73;;;4.80;99.90;;;;;;5117163;28;20931;-42
2024/01/22 06:07:26;;;;;;;4.57;4.07;;;4.80;99.90;;;;;;5120088;28;20465;-44
2024/01/22 06:09:53;;;;;;;4.30;3.53;;;4.80;99.90;;;;;;5101498;28;20192;-44
2024/01/22 06:12:18;;;;;;;4.00;3.60;;;4.90;99.90;;;;;;5119288;28;20263;-42
2024/01/22 06:14:44;;;;;;;7.53;4.40;;;4.90;99.90;;;;;;5118937;28;20421;-43
2024/01/22 06:17:09;;;;;;;5.13;4.00;;;4.90;99.90;;;;;;5118054;28;20251;-44
2024/01/22 06:19:35;;;;;;;6.30;4.23;;;4.90;99.90;;;;;;5119787;28;20270;-46
2024/01/22 06:22:01;;;;;;;5.23;3.73;;;4.90;99.90;;;;;;5119624;28;20175;-43
2024/01/22 06:24:27;;;;;;;5.40;4.07;;;4.90;99.90;;;;;;5120347;28;20843;-43
2024/01/22 06:26:53;;;;;;;4.20;3.73;;;5.00;99.90;;;;;;5120328;28;20215;-42
2024/01/22 06:29:19;;;;;;;5.83;4.00;;;5.00;49.90;;;;;;5117471;28;20823;-41
2024/01/22 06:31:44;;;;;;;4.17;3.87;;;5.00;3.70;;;;;;5116042;28;20530;-43
2024/01/22 06:34:14;;;;;;;4.90;3.90;;;5.10;1.00;;;;;;5118923;28;20182;-45
2024/01/22 06:36:40;;;;;;;3.80;3.40;;;5.20;1.00;;;;;;5119569;28;20199;-43
2024/01/22 06:39:08;;;;;;;4.70;3.57;;;5.30;1.00;;;;;;5118061;28;20472;-43
2024/01/22 06:41:34;;;;;;;4.20;3.53;;;5.30;1.00;;;;;;5099619;28;20498;-45
2024/01/22 06:44:00;;;;;;;4.83;3.27;;;5.30;1.00;;;;;;5117660;28;20862;-44
2024/01/22 06:46:25;;;;;;;4.40;3.30;;;5.30;1.00;;;;;;5118748;28;20474;-43
2024/01/22 06:48:51;;;;;;;4.40;3.63;;;5.20;1.00;;;;;;5118876;28;20179;-43
2024/01/22 06:51:16;;;;;;;5.40;3.87;;;5.30;99.90;;;;;;5118187;28;20172;-45
2024/01/22 06:53:42;;;;;;;3.83;3.23;;;5.30;99.90;;;;;;5117611;28;20177;-43
2024/01/22 06:56:08;;;;;;;3.37;3.07;;;5.30;99.90;;;;;;5117909;28;20203;-47
2024/01/22 06:58:34;;;;;;;4.30;3.17;;;5.40;99.90;;;;;;5116599;28;20429;-44
2024/01/22 07:00:59;;;;;;;4.10;2.90;;;5.40;99.90;;;;;;5119107;28;20558;-44
2024/01/22 07:03:26;;;;;;;3.70;3.23;;;5.40;99.90;;;;;;5119005;28;20262;-43
2024/01/22 07:05:52;;;;;;;4.67;3.47;;;5.50;99.90;;;;;;5119467;28;20291;-44
2024/01/22 07:08:18;;;;;;;3.80;2.83;;;5.60;99.90;;;;;;5119619;28;20942;-48
2024/01/22 07:10:44;;;;;;;3.47;3.10;;;5.70;99.90;;;;;;5084663;28;20425;-43
2024/01/22 07:13:09;;;;;;;7.70;3.50;;;5.80;99.90;;;;;;5119205;28;20393;-42
2024/01/22 07:15:35;;;;;;;3.53;2.90;;;5.90;99.90;;;;;;5117451;28;20180;-44
2024/01/22 07:18:00;;;;;;;3.07;2.77;;;6.00;82.00;;;;;;5117680;28;20186;-45
2024/01/22 07:20:26;;;;;;;2.80;2.03;;;6.10;55.00;;;;;;5117135;28;20203;-43
2024/01/22 07:22:53;;;;;;;3.87;2.70;;;6.10;53.00;;;;;;5100321;28;20270;-43
2024/01/22 07:25:19;;;;;;;4.07;2.43;;;6.10;58.30;;;;;;5118815;28;20308;-46
2024/01/22 07:27:45;;;;;;;3.13;2.60;;;6.20;75.40;;;;;;5099373;28;20500;-43
2024/01/22 07:30:13;;;;;;;4.87;3.07;;;6.20;88.20;;;;;;5116583;28;20179;-46
2024/01/22 07:32:41;;;;;;;3.40;2.60;;;6.20;90.70;;;;;;5118307;28;20664;-45
2024/01/22 07:35:09;;;;;;;3.33;2.50;;;6.30;95.40;;;;;;5118264;28;20406;-46
2024/01/22 07:37:41;;;;;;;3.23;2.80;;;6.20;99.90;;;;;;5118186;28;20421;-44
2024/01/22 07:40:09;;;;;;;3.77;2.40;;;6.20;99.90;;;;;;5117796;28;20469;-44
2024/01/22 07:42:37;;;;;;;3.40;2.47;;;6.20;99.90;;;;;;5117393;28;20493;-47
2024/01/22 07:45:05;;;;;;;3.57;2.30;;;6.30;99.90;;;;;;5118251;28;20417;-45
2024/01/22 07:47:32;;;;;;;2.60;2.30;;;6.30;99.90;;;;;;5117731;28;20484;-46
2024/01/22 07:49:58;;;;;;;4.93;3.90;;;6.40;99.90;;;;;;5118699;28;20481;-45
2024/01/22 07:52:24;;;;;;;2.70;1.80;;;6.50;99.90;;;;;;5118434;28;20828;-45
2024/01/22 07:54:49;;;;;;;2.07;1.60;;;6.70;99.90;;;;;;5117710;28;20183;-43
2024/01/22 07:57:15;;;;;;;4.70;1.70;;;6.80;99.90;;;;;;5117329;28;20578;-44
2024/01/22 07:59:41;;;;;;;2.33;1.83;;;6.90;99.90;;;;;;5098030;28;20180;-45
2024/01/22 08:02:07;;;;;;;2.43;1.27;;;7.00;99.90;;;;;;5116445;28;20190;-46
2024/01/22 08:04:33;;;;;;;2.23;1.60;;;7.10;99.90;;;;;;5116562;28;20692;-44
2024/01/22 08:07:00;;;;;;;3.03;1.30;;;7.30;99.90;;;;;;5098499;28;20203;-44
2024/01/22 08:09:26;;;;;;;3.20;1.90;;;7.40;99.90;;;;;;5116466;28;20486;-44
2024/01/22 08:11:52;;;;;;;1.63;1.40;;;7.50;99.90;;;;;;5098794;28;20486;-45
2024/01/22 08:14:17;;;;;;;3.77;1.47;;;7.60;99.90;;;;;;5116022;28;20426;-44
2024/01/22 08:16:44;;;;;;;3.20;1.30;;;7.60;1.00;;;;;;5117006;28;20251;-44
2024/01/22 08:19:10;;;;;;;2.57;1.70;;;7.70;1.00;;;;;;5106334;28;20229;-48
2024/01/22 08:21:36;;;;;;;1.40;1.27;;;7.70;1.00;;;;;;5112928;28;20433;-46
2024/01/22 08:24:02;;;;;;;1.87;1.70;;;7.80;1.00;;;;;;5101931;28;20425;-45
2024/01/22 08:26:27;;;;;;;3.10;1.50;;;7.80;1.00;;;;;;5106827;28;20499;-42
2024/01/22 08:28:53;;;;;;;1.50;1.10;;;7.90;1.00;;;;;;5074387;28;20180;-43
2024/01/22 08:31:18;;;;;;;2.17;1.77;;;7.90;1.00;;;;;;5115995;28;20191;-44
2024/01/22 08:33:44;;;;;;;3.13;1.50;;;7.90;51.20;;;;;;5115682;28;20176;-44
2024/01/22 08:36:10;;;;;;;2.50;2.03;;;7.90;99.90;;;;;;5115247;28;20188;-42
2024/01/22 08:38:35;;;;;;;2.47;1.40;;;7.90;99.90;;;;;;5116407;28;20472;-43
2024/01/22 08:41:03;;;;;;;3.10;1.40;;;7.90;1.00;;;;;;5115499;28;20627;-43
2024/01/22 08:43:29;;;;;;;1.50;1.03;;;7.90;31.00;;;;;;5115918;28;20176;-43
2024/01/22 08:45:54;;;;;;;1.53;1.13;;;8.00;1.00;;;;;;5115839;28;20886;-42
2024/01/22 08:48:20;;;;;;;2.57;1.83;;;8.20;1.00;;;;;;5115588;28;20255;-44
2024/01/22 08:50:45;;;;;;;2.10;1.27;;;8.30;1.00;;;;;;5115241;28;20542;-43
2024/01/22 08:53:11;;;;;;;1.40;0.90;;;8.50;1.00;;;;;;5115390;28;20186;-44
2024/01/22 08:55:37;;;;;;;2.10;0.80;;;8.70;1.00;;;;;;5116295;28;20211;-43
2024/01/22 08:58:04;;;;;;;2.37;1.00;;;8.90;99.90;;;;;;5115007;28;20187;-43
2024/01/22 09:00:30;;;;;;;1.73;1.10;;;9.20;1.00;;;;;;5101583;28;20291;-43
2024/01/22 09:02:55;;;;;;;0.90;0.50;;;9.30;99.90;;;;;;5095999;28;20529;-43
2024/01/22 09:05:21;;;;;;;1.50;0.70;;;9.60;99.90;;;;;;5100862;28;20179;-44
2024/01/22 09:07:48;;;;;;;1.57;0.90;;;9.80;99.90;;;;;;5106528;28;20196;-45
2024/01/22 09:10:15;;;;;;;1.10;0.83;;;9.90;1.00;;;;;;5104699;28;20290;-43
2024/01/22 09:12:41;;;;;;;2.30;0.90;;;10.00;1.00;;;;;;5098929;28;20589;-44
2024/01/22 09:15:07;;;;;;;1.40;1.00;;;10.10;1.00;;;;;;5096609;28;20551;-43
2024/01/22 09:17:33;;;;;;;1.50;0.77;;;10.20;99.90;;;;;;5078372;28;20257;-47
2024/01/22 09:19:59;;;;;;;1.43;1.00;;;10.30;99.90;;;;;;5096458;28;20828;-43
2024/01/22 09:22:28;;;;;;;2.23;0.87;;;10.40;1.00;;;;;;5096857;28;20434;-46
2024/01/22 09:24:54;;;;;;;1.50;0.70;;;10.60;1.00;;;;;;5078408;28;20200;-43
2024/01/22 09:27:21;;;;;;;1.13;0.60;;;10.80;99.90;;;;;;5094993;28;20500;-44
2024/01/22 09:29:47;;;;;;;1.80;0.70;;;10.90;47.70;;;;;;5095284;28;20430;-43
2024/01/22 09:32:12;;;;;;;3.17;0.80;;;11.00;1.00;;;;;;5094442;28;20816;-44
2024/01/22 09:34:39;;;;;;;1.23;0.60;;;11.10;1.00;;;;;;5095093;28;20492;-45
2024/01/22 09:37:05;;;;;;;1.20;0.63;;;11.20;1.00;;;;;;5094480;28;20456;-45
2024/01/22 09:39:30;;;;;;;1.10;0.70;;;11.30;1.00;;;;;;5103282;28;20480;-43
2024/01/22 09:41:57;;;;;;;1.70;0.67;;;11.60;1.00;;;;;;5098898;28;20426;-44
2024/01/22 09:44:23;;;;;;;1.10;0.70;;;11.60;35.00;;;;;;5096574;28;20261;-42
2024/01/22 09:46:49;;;;;;;0.80;0.43;;;11.50;1.00;;;;;;5077410;28;20890;-44
2024/01/22 09:49:15;;;;;;;3.70;0.70;;;11.60;1.00;;;;;;5078732;28;20461;-42
2024/01/22 09:51:44;;;;;;;1.50;0.60;;;11.60;1.00;;;;;;5112069;28;20520;-42
2024/01/22 09:54:17;;;;;;;1.57;0.70;;;11.60;1.00;;;;;;5109577;28;20219;-42
2024/01/22 09:56:46;;;;;;;1.60;0.70;;;11.60;1.00;;;;;;5101223;28;20433;-44
2024/01/22 09:59:19;;;;;;;1.50;0.70;;;11.60;99.90;;;;;;5107227;28;20811;-43
2024/01/22 10:01:49;;;;;;;2.57;0.80;;;11.60;1.00;;;;;;5097619;28;20484;-44
2024/01/22 10:04:16;;;;;;;1.77;0.70;;;11.60;99.90;;;;;;5110694;28;20429;-44
2024/01/22 10:06:42;;;;;;;1.07;0.63;;;11.50;1.00;;;;;;5101405;28;20466;-45
2024/01/22 10:09:08;;;;;;;1.70;1.10;;;11.40;12.90;;;;;;5112080;28;20791;-45
2024/01/22 10:11:35;;;;;;;1.10;0.83;;;11.20;1.00;;;;;;5110708;28;20425;-42
2024/01/22 10:14:00;;;;;;;1.20;0.60;;;11.20;1.00;;;;;;5094025;28;20414;-44
2024/01/22 10:16:28;;;;;;;2.63;0.80;;;11.20;1.00;;;;;;5093635;28;20436;-44
2024/01/22 10:19:05;;;;;;;1.30;0.83;;;11.10;99.90;;;;;;5094557;28;20191;-44
2024/01/22 10:21:30;;;;;;;1.20;0.77;;;11.10;99.90;;;;;;5105668;28;20480;-43
2024/01/22 10:23:58;;;;;;;1.90;0.90;;;11.20;99.90;;;;;;5109033;28;20442;-43
2024/01/22 10:26:24;;;;;;;1.20;0.70;;;11.10;99.90;;;;;;5093628;28;20219;-44
2024/01/22 10:28:51;;;;;;;1.83;0.90;;;11.10;1.00;;;;;;5094051;28;20437;-44
2024/01/22 10:31:17;;;;;;;2.30;0.73;;;11.10;1.00;;;;;;5095132;28;20431;-43
2024/01/22 10:33:42;;;;;;;2.37;1.00;;;11.00;1.00;;;;;;5059413;28;20521;-44
2024/01/22 10:36:19;;;;;;;1.20;0.90;;;11.00;27.60;;;;;;5075812;28;20215;-44
2024/01/22 10:38:46;;;;;;;2.90;1.10;;;10.90;99.90;;;;;;5094057;28;20274;-41
2024/01/22 10:41:18;;;;;;;3.13;2.10;;;10.80;99.90;;;;;;5094304;28;20562;-42
2024/01/22 10:43:44;;;;;;;1.13;0.80;;;10.80;1.00;;;;;;5096354;28;20558;-46
2024/01/22 10:46:10;;;;;;;1.60;1.00;;;10.80;1.00;;;;;;5097941;28;20807;-43
2024/01/22 10:48:37;;;;;;;1.60;1.10;;;10.80;99.90;;;;;;5098723;28;20414;-43
2024/01/22 10:51:07;;;;;;;1.50;1.03;;;10.80;99.90;;;;;;5096930;28;20426;-44
2024/01/22 10:53:33;;;;;;;1.37;1.10;;;10.80;99.90;;;;;;5098236;28;20739;-44
2024/01/22 10:56:03;;;;;;;2.30;1.30;;;10.80;99.90;;;;;;5079052;28;20828;-44
2024/01/22 10:58:43;;;;;;;1.17;0.73;;;10.80;99.90;;;;;;5079705;28;20418;-44
2024/01/22 11:01:15;;;;;;;1.83;1.20;;;10.80;1.00;;;;;;5097663;28;20524;-46
2024/01/22 11:03:47;;;;;;;2.23;1.10;;;10.90;99.90;;;;;;5097169;28;20855;-44
2024/01/22 11:06:18;;;;;;;1.70;1.00;;;10.90;99.90;;;;;;5096504;28;20572;-42
2024/01/22 11:08:46;;;;;;;1.87;1.10;;;11.10;99.90;;;;;;5098053;28;20441;-44
2024/01/22 11:11:13;;;;;;;1.40;1.17;;;11.20;1.00;;;;;;5098233;28;20476;-44
2024/01/22 11:13:38;;;;;;;1.17;0.80;;;11.20;1.00;;;;;;5097744;28;20519;-46
2024/01/22 11:16:04;;;;;;;1.77;1.03;;;11.10;99.90;;;;;;5095922;28;20928;-45
2024/01/22 11:18:30;;;;;;;1.70;1.03;;;11.00;5.20;;;;;;5095732;28;20396;-43
2024/01/22 11:21:18;;;;;;;1.37;1.07;;;10.90;99.90;;;;;;5079004;28;20500;-44
2024/01/22 11:24:22;;;;;;;1.73;1.13;;;11.00;99.90;;;;;;5097293;28;20196;-41
2024/01/22 11:26:51;;;;;;;1.60;1.20;;;10.90;53.70;;;;;;5098682;28;20767;-45
2024/01/22 11:29:22;;;;;;;1.43;0.90;;;10.90;99.90;;;;;;5097491;28;20780;-42
2024/01/22 11:31:48;;;;;;;2.97;1.23;;;10.90;99.90;;;;;;5099026;28;20433;-43
2024/01/22 11:34:14;;;;;;;2.33;1.50;;;10.80;1.00;;;;;;5096804;28;20435;-43
2024/01/22 11:36:50;;;;;;;1.70;0.97;;;10.90;1.00;;;;;;5076804;28;20415;-45
2024/01/22 11:39:45;;;;;;;1.57;1.00;;;10.80;1.00;;;;;;5096660;28;20505;-45
2024/01/22 11:42:17;;;;;;;1.00;0.80;;;10.80;99.90;;;;;;5096890;28;20650;-46
2024/01/22 11:44:48;;;;;;;3.37;0.90;;;10.80;99.90;;;;;;5097072;28;20422;-45
2024/01/22 11:47:14;;;;;;;2.10;1.00;;;10.80;99.90;;;;;;5097068;28;20457;-44
2024/01/22 11:49:40;;;;;;;0.90;0.50;;;10.80;99.90;;;;;;5096316;28;20537;-46
2024/01/22 11:52:16;;;;;;;1.30;0.80;;;10.90;99.90;;;;;;5078901;28;20426;-46
2024/01/22 11:54:55;;;;;;;2.77;0.73;;;10.80;99.90;;;;;;5095862;28;20250;-43
2024/01/22 11:57:21;;;;;;;1.10;0.70;;;10.90;99.90;;;;;;5094989;28;20433;-43
2024/01/22 12:00:06;;;;;;;1.70;0.80;;;10.90;99.90;;;;;;5095467;28;20558;-46
2024/01/22 12:02:33;;;;;;;0.90;0.47;;;10.90;99.90;;;;;;5096392;28;20437;-41
2024/01/22 12:05:04;;;;;;;2.07;0.70;;;10.90;99.90;;;;;;5077985;28;20820;-44
2024/01/22 12:07:43;;;;;;;2.20;0.90;;;11.00;99.90;;;;;;5096274;28;20477;-42
2024/01/22 12:10:24;;;;;;;1.37;0.60;;;10.90;1.00;;;;;;5096624;28;20434;-49
2024/01/22 12:12:58;;;;;;;1.47;0.90;;;11.00;1.00;;;;;;5096770;28;20546;-42
2024/01/22 12:15:25;;;;;;;0.90;0.73;;;10.90;1.00;;;;;;5095378;28;20418;-45
2024/01/22 12:17:52;;;;;;;0.90;0.60;;;11.00;99.90;;;;;;5095504;28;20643;-43
2024/01/22 12:20:19;;;;;;;1.10;0.67;;;11.00;99.90;;;;;;5093222;28;20418;-45
2024/01/22 12:22:45;;;;;;;1.30;0.80;;;11.10;99.90;;;;;;5094149;28;20494;-42
2024/01/22 12:25:12;;;;;;;3.70;0.83;;;11.10;99.90;;;;;;5093082;28;20836;-45
2024/01/22 12:27:38;;;;;;;1.53;0.70;;;11.00;99.90;;;;;;5093402;28;20205;-42
2024/01/22 12:30:04;;;;;;;1.00;0.70;;;11.00;99.90;;;;;;5094544;28;20696;-43
2024/01/22 12:32:30;;;;;;;0.90;0.50;;;11.10;99.90;;;;;;5093940;28;20406;-43
2024/01/22 12:34:57;;;;;;;1.43;1.00;;;11.00;99.90;;;;;;5092541;28;20902;-42
2024/01/22 12:37:26;;;;;;;1.30;0.70;;;11.00;99.90;;;;;;5095132;28;20723;-42
2024/01/22 12:40:06;;;;;;;1.17;0.70;;;11.00;99.90;;;;;;5078741;28;20477;-43
2024/01/22 12:42:32;;;;;;;1.33;0.77;;;11.00;99.90;;;;;;5094096;28;20430;-42
2024/01/22 12:45:01;;;;;;;1.30;0.63;;;11.00;99.90;;;;;;5092936;28;20714;-45
2024/01/22 12:47:28;;;;;;;1.43;0.80;;;11.00;99.90;;;;;;5091875;28;20288;-43
2024/01/22 12:49:53;;;;;;;1.90;0.70;;;11.00;99.90;;;;;;5075048;28;20466;-42
2024/01/22 12:52:21;;;;;;;2.03;0.70;;;11.00;1.00;;;;;;5090529;28;20418;-42
2024/01/22 12:54:47;;;;;;;1.77;0.77;;;10.90;1.00;;;;;;5075149;28;20523;-41
2024/01/22 12:57:12;;;;;;;1.10;0.60;;;10.90;1.00;;;;;;5094965;28;20650;-41